Aeroporto :
LOGIN :

Iscrizione | Disclaimer

   EN    FR    IT 

 










Sommario :    VFR   VFR Marginale   IFR   IFR Intensivo   IFR Molto Intensivo
Visibilità : 
Base nubi : 
>= 8 km
>= 3000ft
5 / 8 km
1000 / 3000 ft
1500m / 5 km
500 / 1000 ft
800 / 1500m
200 / 500 ft
< 800m
< 200 ft
Simboli :   Temporali  Nebbia  Neve Forte  Precipitazioni Forti  Vento > 20 kt
SIGMETs :   Varie  Temporali  Ghiacco  Turbolenza  Onda orograficha  Ceneri Vulcaniche






- Altitudine del aeroporto : 1000 ft
- Codice IATA : PEV


LHPP - Pécs Pogany

ULTIMO METAR :
  • 180445Z AUTO 00000KT CAVOK 23/19 Q1018

METARs OBSOLETI :
  • 180415Z AUTO 33002KT CAVOK 20/18 Q1018
  • 180345Z AUTO 34001KT CAVOK 19/16 Q1018
  • 180315Z AUTO 00000KT CAVOK 17/16 Q1017
  • 180245Z AUTO 00000KT CAVOK 17/16 Q1017
  • 180215Z AUTO VRB01KT CAVOK 17/15 Q1017
  • 180145Z AUTO 00000KT CAVOK 18/16 Q1017
  • 180115Z AUTO VRB01KT CAVOK 18/16 Q1017
  • 180045Z AUTO 03004KT CAVOK 18/16 Q1017
  • 180015Z AUTO 03001KT CAVOK 19/16 Q1017
  • 172345Z AUTO 03002KT CAVOK 19/16 Q1017

TAF TAF LHPP
Valido dal 18 a 03 ore il 18 a 12 ore UTC


180215Z 1803/1812 VRB03KT CAVOK
BECMG 1807/1810 18006KT



MetMap, La meteo Aeronautica in un colpo d'occhio ! - Copyright ORBIFLY Dicembre 2007 - Disclaimer

ORBIFLY MET'MAP TEAM :

Programmazione e sviluppo : Alexandra Zaïnal
Concezione : Baudouin d'Aumeries
Supporto tecnico e logistico : Manuel Goepfert
Aiuto : Marc-Olivier Méhu
Aiuto per la traduzione : Arnaldo La Scala




FONTI E CREDITI :

   NOAA